Time,TemperatureF,DewpointF,PressureIn,WindDirection,WindDirectionDegrees,WindSpeedMPH,WindSpeedGustMPH,Humidity,HourlyPrecipIn,Conditions,Clouds,dailyrainin,SoftwareType,DateUTC
2013-03-17 00:02:00,40.0,24.0,-100.00,SW,224,4.0,7.0,52,-99.99,,,-99.99,,2013-03-17 07:02:00,
2013-03-17 00:12:00,38.0,24.0,-100.00,SSW,212,4.0,9.0,56,-99.99,,,-99.99,,2013-03-17 07:12:00,
2013-03-17 00:22:00,37.0,24.0,-100.00,SSE,161,2.0,4.0,58,-99.99,,,-99.99,,2013-03-17 07:22:00,
2013-03-17 00:32:00,36.0,23.0,-100.00,SSE,165,2.0,3.0,58,-99.99,,,-99.99,,2013-03-17 07:32:00,
2013-03-17 00:42:00,37.0,23.0,-100.00,SSE,155,2.0,4.0,57,-99.99,,,-99.99,,2013-03-17 07:42:00,
2013-03-17 00:52:00,37.0,23.0,-100.00,SSE,167,3.0,5.0,56,-99.99,,,-99.99,,2013-03-17 07:52:00,
2013-03-17 01:02:00,37.0,23.0,-100.00,South,171,2.0,3.0,56,-99.99,,,-99.99,,2013-03-17 08:02:00,
2013-03-17 01:12:00,37.0,23.0,-100.00,SSW,203,4.0,7.0,57,-99.99,,,-99.99,,2013-03-17 08:12:00,
2013-03-17 01:22:00,37.0,24.0,-100.00,West,263,1.0,3.0,58,-99.99,,,-99.99,,2013-03-17 08:22:00,
2013-03-17 01:32:00,37.0,24.0,-100.00,NW,318,0.0,1.0,60,-99.99,,,-99.99,,2013-03-17 08:32:00,
2013-03-17 01:42:00,37.0,24.0,-100.00,WSW,241,1.0,5.0,60,-99.99,,,-99.99,,2013-03-17 08:42:00,
2013-03-17 01:52:00,35.0,24.0,-100.00,South,179,3.0,6.0,64,-99.99,,,-99.99,,2013-03-17 08:52:00,
2013-03-17 02:02:00,35.0,24.0,-100.00,SE,128,3.0,4.0,65,-99.99,,,-99.99,,2013-03-17 09:02:00,
2013-03-17 02:12:00,35.0,24.0,-100.00,SE,128,2.0,3.0,63,-99.99,,,-99.99,,2013-03-17 09:12:00,
2013-03-17 02:22:00,36.0,25.0,-100.00,SE,145,2.0,4.0,65,-99.99,,,-99.99,,2013-03-17 09:22:00,
2013-03-17 02:32:00,36.0,25.0,-100.00,ESE,120,3.0,4.0,63,-99.99,,,-99.99,,2013-03-17 09:32:00,
2013-03-17 02:42:00,35.0,24.0,-100.00,SE,133,2.0,4.0,65,-99.99,,,-99.99,,2013-03-17 09:42:00,
2013-03-17 02:53:00,35.0,25.0,-100.00,ESE,121,3.0,4.0,67,-99.99,,,-99.99,,2013-03-17 09:53:00,
2013-03-17 03:03:00,34.0,25.0,-100.00,ESE,121,2.0,3.0,69,-99.99,,,-99.99,,2013-03-17 10:03:00,
2013-03-17 03:12:00,36.0,24.0,-100.00,ESE,103,3.0,6.0,61,-99.99,,,-99.99,,2013-03-17 10:12:00,
2013-03-17 03:23:00,35.0,24.0,-100.00,ESE,110,3.0,3.0,65,-99.99,,,-99.99,,2013-03-17 10:23:00,
2013-03-17 03:33:00,34.0,23.0,-100.00,ESE,117,2.0,3.0,65,-99.99,,,-99.99,,2013-03-17 10:33:00,
2013-03-17 03:42:00,35.0,24.0,-100.00,ESE,102,3.0,4.0,63,-99.99,,,-99.99,,2013-03-17 10:42:00,
2013-03-17 03:52:00,35.0,24.0,-100.00,ESE,102,3.0,4.0,63,-99.99,,,-99.99,,2013-03-17 10:52:00,
2013-03-17 04:02:00,34.0,23.0,-100.00,ESE,117,2.0,3.0,65,-99.99,,,-99.99,,2013-03-17 11:02:00,
2013-03-17 04:12:00,33.0,23.0,-100.00,ESE,117,3.0,4.0,66,-99.99,,,-99.99,,2013-03-17 11:12:00,
2013-03-17 04:22:00,34.0,23.0,-100.00,ESE,110,3.0,5.0,63,-99.99,,,-99.99,,2013-03-17 11:22:00,
2013-03-17 04:32:00,34.0,23.0,-100.00,SE,128,3.0,4.0,63,-99.99,,,-99.99,,2013-03-17 11:32:00,
2013-03-17 04:42:00,34.0,22.0,-100.00,SE,136,3.0,5.0,61,-99.99,,,-99.99,,2013-03-17 11:42:00,
2013-03-17 04:52:00,34.0,22.0,-100.00,SE,124,4.0,5.0,62,-99.99,,,-99.99,,2013-03-17 11:52:00,
2013-03-17 05:01:00,34.0,22.0,-100.00,SE,127,3.0,5.0,60,-99.99,,,-99.99,,2013-03-17 12:01:00,
2013-03-17 05:12:00,34.0,22.0,-100.00,SE,128,3.0,4.0,61,-99.99,,,-99.99,,2013-03-17 12:12:00,
2013-03-17 05:22:00,34.0,22.0,-100.00,SE,128,3.0,4.0,61,-99.99,,,-99.99,,2013-03-17 12:22:00,
2013-03-17 05:32:00,34.0,23.0,-100.00,ESE,103,3.0,5.0,63,-99.99,,,-99.99,,2013-03-17 12:32:00,
2013-03-17 05:42:00,35.0,24.0,-100.00,ESE,113,3.0,5.0,63,-99.99,,,-99.99,,2013-03-17 12:42:00,
2013-03-17 05:52:00,34.0,23.0,-100.00,ESE,106,4.0,6.0,64,-99.99,,,-99.99,,2013-03-17 12:52:00,
2013-03-17 06:01:00,34.0,23.0,-100.00,ESE,112,3.0,4.0,65,-99.99,,,-99.99,,2013-03-17 13:01:00,
2013-03-17 06:12:00,34.0,25.0,-100.00,ESE,116,4.0,5.0,69,-99.99,,,-99.99,,2013-03-17 13:12:00,
2013-03-17 06:22:00,33.0,24.0,-100.00,SE,124,4.0,5.0,70,-99.99,,,-99.99,,2013-03-17 13:22:00,
2013-03-17 06:32:00,33.0,25.0,-100.00,East,99,3.0,5.0,72,-99.99,,,-99.99,,2013-03-17 13:32:00,
2013-03-17 06:42:00,33.0,24.0,-100.00,ESE,119,3.0,4.0,69,-99.99,,,-99.99,,2013-03-17 13:42:00,
2013-03-17 06:52:00,33.0,23.0,-100.00,ESE,120,4.0,5.0,66,-99.99,,,-99.99,,2013-03-17 13:52:00,
2013-03-17 07:02:00,33.0,22.0,-100.00,SE,127,3.0,4.0,64,-99.99,,,-99.99,,2013-03-17 14:02:00,
2013-03-17 07:12:00,33.0,23.0,-100.00,ESE,123,2.0,3.0,66,-99.99,,,-99.99,,2013-03-17 14:12:00,
2013-03-17 07:22:00,33.0,24.0,-100.00,SE,127,2.0,3.0,69,-99.99,,,-99.99,,2013-03-17 14:22:00,
2013-03-17 07:32:00,33.0,22.0,-100.00,East,90,2.0,3.0,63,-99.99,,,-99.99,,2013-03-17 14:32:00,
2013-03-17 07:42:00,33.0,20.0,-100.00,ESE,121,3.0,4.0,58,-99.99,,,-99.99,,2013-03-17 14:42:00,
2013-03-17 07:52:00,33.0,19.0,-100.00,ESE,123,3.0,3.0,57,-99.99,,,-99.99,,2013-03-17 14:52:00,
2013-03-17 08:02:00,33.0,20.0,-100.00,SE,131,3.0,3.0,58,-99.99,,,-99.99,,2013-03-17 15:02:00,
2013-03-17 08:12:00,33.0,19.0,-100.00,SE,134,2.0,3.0,56,-99.99,,,-99.99,,2013-03-17 15:12:00,
2013-03-17 08:23:00,33.0,18.0,-100.00,SSE,167,1.0,3.0,53,-99.99,,,-99.99,,2013-03-17 15:23:00,
2013-03-17 08:32:00,33.0,19.0,-100.00,SE,130,4.0,5.0,55,-99.99,,,-99.99,,2013-03-17 15:32:00,
2013-03-17 08:42:00,33.0,18.0,-100.00,SE,124,5.0,6.0,53,-99.99,,,-99.99,,2013-03-17 15:42:00,
2013-03-17 08:52:00,33.0,18.0,-100.00,ESE,110,3.0,5.0,53,-99.99,,,-99.99,,2013-03-17 15:52:00,
2013-03-17 09:03:00,33.0,19.0,-100.00,SE,130,3.0,4.0,57,-99.99,,,-99.99,,2013-03-17 16:03:00,
2013-03-17 09:12:00,33.0,17.0,-100.00,ESE,121,3.0,4.0,52,-99.99,,,-99.99,,2013-03-17 16:12:00,
2013-03-17 09:22:00,33.0,19.0,-100.00,SE,134,2.0,4.0,56,-99.99,,,-99.99,,2013-03-17 16:22:00,
2013-03-17 09:33:00,34.0,18.0,-100.00,SE,124,3.0,4.0,51,-99.99,,,-99.99,,2013-03-17 16:33:00,
2013-03-17 09:42:00,34.0,18.0,-100.00,ESE,117,3.0,4.0,52,-99.99,,,-99.99,,2013-03-17 16:42:00,
2013-03-17 09:52:00,34.0,19.0,-100.00,ESE,117,3.0,4.0,53,-99.99,,,-99.99,,2013-03-17 16:52:00,
2013-03-17 10:02:00,34.0,19.0,-100.00,ESE,123,2.0,3.0,54,-99.99,,,-99.99,,2013-03-17 17:02:00,
2013-03-17 10:12:00,35.0,17.0,-100.00,ESE,123,2.0,3.0,48,-99.99,,,-99.99,,2013-03-17 17:12:00,
2013-03-17 10:22:00,35.0,19.0,-100.00,SE,133,1.0,2.0,51,-99.99,,,-99.99,,2013-03-17 17:22:00,
2013-03-17 10:33:00,36.0,19.0,-100.00,SSE,167,1.0,2.0,50,-99.99,,,-99.99,,2013-03-17 17:33:00,
2013-03-17 10:42:00,37.0,18.0,-100.00,North,-999,0.0,0.0,45,-99.99,,,-99.99,,2013-03-17 17:42:00,
2013-03-17 10:52:00,37.0,17.0,-100.00,East,80,1.0,2.0,44,-99.99,,,-99.99,,2013-03-17 17:52:00,
2013-03-17 11:02:00,39.0,17.0,-100.00,North,-999,0.0,0.0,40,-99.99,,,-99.99,,2013-03-17 18:02:00,
2013-03-17 11:12:00,39.0,18.0,-100.00,North,-999,0.0,0.0,43,-99.99,,,-99.99,,2013-03-17 18:12:00,
2013-03-17 11:22:00,41.0,17.0,-100.00,SSW,212,1.0,3.0,37,-99.99,,,-99.99,,2013-03-17 18:22:00,
2013-03-17 11:32:00,42.0,18.0,-100.00,North,-999,0.0,0.0,38,-99.99,,,-99.99,,2013-03-17 18:32:00,
2013-03-17 11:42:00,46.0,16.0,-100.00,WSW,251,0.0,2.0,30,-99.99,,,-99.99,,2013-03-17 18:42:00,
2013-03-17 11:52:00,45.0,10.0,-100.00,WSW,257,0.0,2.0,24,-99.99,,,-99.99,,2013-03-17 18:52:00,
2013-03-17 12:02:00,46.0,9.0,-100.00,West,280,1.0,3.0,22,-99.99,,,-99.99,,2013-03-17 19:02:00,
2013-03-17 12:12:00,47.0,10.0,-100.00,West,281,0.0,2.0,22,-99.99,,,-99.99,,2013-03-17 19:12:00,
2013-03-17 12:22:00,47.0,8.0,-100.00,WNW,295,1.0,3.0,20,-99.99,,,-99.99,,2013-03-17 19:22:00,
2013-03-17 12:32:00,47.0,6.0,-100.00,North,-999,0.0,0.0,18,-99.99,,,-99.99,,2013-03-17 19:32:00,
2013-03-17 12:41:00,47.0,3.0,-100.00,North,349,1.0,4.0,16,-99.99,,,-99.99,,2013-03-17 19:41:00,
2013-03-17 12:53:00,47.0,3.0,-100.00,South,185,0.0,3.0,16,-99.99,,,-99.99,,2013-03-17 19:53:00,
2013-03-17 13:02:00,47.0,3.0,-100.00,SSW,198,0.0,2.0,16,-99.99,,,-99.99,,2013-03-17 20:02:00,
2013-03-17 13:12:00,48.0,7.0,-100.00,North,-999,0.0,0.0,18,-99.99,,,-99.99,,2013-03-17 20:12:00,
2013-03-17 13:22:00,48.0,9.0,-100.00,West,275,2.0,4.0,20,-99.99,,,-99.99,,2013-03-17 20:22:00,
2013-03-17 13:32:00,48.0,8.0,-100.00,WNW,294,2.0,4.0,19,-99.99,,,-99.99,,2013-03-17 20:32:00,
2013-03-17 13:42:00,47.0,6.0,-100.00,WNW,299,3.0,4.0,18,-99.99,,,-99.99,,2013-03-17 20:42:00,
2013-03-17 13:52:00,48.0,8.0,-100.00,NW,308,1.0,3.0,19,-99.99,,,-99.99,,2013-03-17 20:52:00,
2013-03-17 14:02:00,48.0,7.0,-100.00,NW,316,2.0,3.0,18,-99.99,,,-99.99,,2013-03-17 21:02:00,
2013-03-17 14:12:00,50.0,8.0,-100.00,NW,315,2.0,3.0,18,-99.99,,,-99.99,,2013-03-17 21:12:00,
2013-03-17 14:22:00,49.0,7.0,-100.00,WNW,289,2.0,3.0,18,-99.99,,,-99.99,,2013-03-17 21:22:00,
2013-03-17 14:33:00,50.0,11.0,-100.00,WNW,288,3.0,4.0,20,-99.99,,,-99.99,,2013-03-17 21:33:00,
2013-03-17 14:42:00,50.0,11.0,-100.00,West,272,3.0,4.0,20,-99.99,,,-99.99,,2013-03-17 21:42:00,
2013-03-17 14:52:00,50.0,11.0,-100.00,NW,305,3.0,4.0,20,-99.99,,,-99.99,,2013-03-17 21:52:00,
2013-03-17 15:03:00,50.0,12.0,-100.00,West,277,3.0,4.0,21,-99.99,,,-99.99,,2013-03-17 22:03:00,
2013-03-17 15:12:00,51.0,10.0,-100.00,West,274,3.0,4.0,19,-99.99,,,-99.99,,2013-03-17 22:12:00,
2013-03-17 15:23:00,52.0,10.0,-100.00,West,275,3.0,4.0,18,-99.99,,,-99.99,,2013-03-17 22:23:00,
2013-03-17 15:33:00,52.0,13.0,-100.00,WNW,292,2.0,5.0,21,-99.99,,,-99.99,,2013-03-17 22:33:00,
2013-03-17 15:42:00,52.0,13.0,-100.00,WNW,292,2.0,5.0,21,-99.99,,,-99.99,,2013-03-17 22:42:00,
2013-03-17 15:52:00,52.0,10.0,-100.00,West,274,2.0,4.0,18,-99.99,,,-99.99,,2013-03-17 22:52:00,
2013-03-17 16:02:00,53.0,12.0,-100.00,North,-999,0.0,0.0,19,-99.99,,,-99.99,,2013-03-17 23:02:00,
2013-03-17 16:12:00,52.0,11.0,-100.00,WSW,256,2.0,4.0,19,-99.99,,,-99.99,,2013-03-17 23:12:00,
2013-03-17 16:22:00,52.0,12.0,-100.00,WSW,258,3.0,6.0,20,-99.99,,,-99.99,,2013-03-17 23:22:00,
2013-03-17 16:32:00,52.0,16.0,-100.00,WNW,285,2.0,4.0,24,-99.99,,,-99.99,,2013-03-17 23:32:00,
2013-03-17 16:42:00,52.0,16.0,-100.00,West,274,3.0,8.0,24,-99.99,,,-99.99,,2013-03-17 23:42:00,
2013-03-17 16:52:00,52.0,29.0,-100.00,West,274,3.0,5.0,41,-99.99,,,-99.99,,2013-03-17 23:52:00,
2013-03-17 17:03:00,50.0,23.0,-100.00,WSW,258,6.0,13.0,35,-99.99,,,-99.99,,2013-03-18 00:03:00,
2013-03-17 17:12:00,50.0,25.0,-100.00,West,275,4.0,8.0,37,-99.99,,,-99.99,,2013-03-18 00:12:00,
2013-03-17 17:22:00,50.0,24.0,-100.00,West,272,4.0,10.0,36,-99.99,,,-99.99,,2013-03-18 00:22:00,
2013-03-17 17:32:00,50.0,24.0,-100.00,West,272,4.0,10.0,36,-99.99,,,-99.99,,2013-03-18 00:32:00,
2013-03-17 17:42:00,50.0,26.0,-100.00,West,272,3.0,7.0,39,-99.99,,,-99.99,,2013-03-18 00:42:00,
2013-03-17 17:52:00,50.0,26.0,-100.00,West,272,3.0,7.0,39,-99.99,,,-99.99,,2013-03-18 00:52:00,
2013-03-17 18:01:00,50.0,26.0,-100.00,West,272,3.0,7.0,39,-99.99,,,-99.99,,2013-03-18 01:01:00,
2013-03-17 18:22:00,50.0,25.0,-100.00,West,274,4.0,7.0,37,-99.99,,,-99.99,,2013-03-18 01:22:00,
2013-03-17 18:32:00,50.0,25.0,-100.00,West,271,3.0,7.0,38,-99.99,,,-99.99,,2013-03-18 01:32:00,
2013-03-17 18:42:00,50.0,27.0,-100.00,West,261,4.0,7.0,40,-99.99,,,-99.99,,2013-03-18 01:42:00,
2013-03-17 18:52:00,49.0,26.0,-100.00,WSW,253,4.0,8.0,41,-99.99,,,-99.99,,2013-03-18 01:52:00,
2013-03-17 19:02:00,48.0,28.0,-100.00,WSW,253,5.0,9.0,45,-99.99,,,-99.99,,2013-03-18 02:02:00,
2013-03-17 19:12:00,48.0,28.0,-100.00,WSW,254,4.0,10.0,46,-99.99,,,-99.99,,2013-03-18 02:12:00,
2013-03-17 19:22:00,48.0,27.0,-100.00,West,264,3.0,7.0,43,-99.99,,,-99.99,,2013-03-18 02:22:00,
2013-03-17 19:32:00,48.0,28.0,-100.00,WSW,257,4.0,8.0,46,-99.99,,,-99.99,,2013-03-18 02:32:00,
2013-03-17 19:42:00,47.0,29.0,-100.00,WSW,243,5.0,10.0,49,-99.99,,,-99.99,,2013-03-18 02:42:00,
2013-03-17 19:52:00,46.0,29.0,-100.00,WSW,243,4.0,9.0,51,-99.99,,,-99.99,,2013-03-18 02:52:00,
2013-03-17 20:02:00,46.0,28.0,-100.00,SW,220,6.0,8.0,49,-99.99,,,-99.99,,2013-03-18 03:02:00,
2013-03-17 20:11:00,45.0,28.0,-100.00,WSW,248,2.0,7.0,52,-99.99,,,-99.99,,2013-03-18 03:11:00,
2013-03-17 20:22:00,44.0,27.0,-100.00,SW,230,4.0,7.0,51,-99.99,,,-99.99,,2013-03-18 03:22:00,
2013-03-17 20:32:00,45.0,27.0,-100.00,SW,220,6.0,9.0,50,-99.99,,,-99.99,,2013-03-18 03:32:00,
2013-03-17 20:42:00,41.0,27.0,-100.00,SW,216,2.0,7.0,56,-99.99,,,-99.99,,2013-03-18 03:42:00,
2013-03-17 20:52:00,41.0,27.0,-100.00,South,191,5.0,7.0,58,-99.99,,,-99.99,,2013-03-18 03:52:00,
2013-03-17 21:02:00,40.0,27.0,-100.00,SE,134,3.0,4.0,60,-99.99,,,-99.99,,2013-03-18 04:02:00,
2013-03-17 21:12:00,40.0,27.0,-100.00,SE,143,3.0,4.0,59,-99.99,,,-99.99,,2013-03-18 04:12:00,
2013-03-17 21:22:00,40.0,27.0,-100.00,ESE,119,1.0,2.0,59,-99.99,,,-99.99,,2013-03-18 04:22:00,
2013-03-17 21:33:00,39.0,29.0,-100.00,ESE,114,3.0,3.0,68,-99.99,,,-99.99,,2013-03-18 04:33:00,
2013-03-17 21:42:00,39.0,29.0,-100.00,ESE,114,3.0,5.0,68,-99.99,,,-99.99,,2013-03-18 04:42:00,
2013-03-17 21:52:00,39.0,28.0,-100.00,SE,126,2.0,4.0,65,-99.99,,,-99.99,,2013-03-18 04:52:00,
2013-03-17 22:02:00,38.0,28.0,-100.00,North,-999,0.0,0.0,68,-99.99,,,-99.99,,2013-03-18 05:02:00,
2013-03-17 22:12:00,38.0,28.0,-100.00,North,-999,0.0,0.0,68,-99.99,,,-99.99,,2013-03-18 05:12:00,
2013-03-17 22:22:00,37.0,26.0,-100.00,North,-999,0.0,0.0,65,-99.99,,,-99.99,,2013-03-18 05:22:00,
2013-03-17 22:32:00,38.0,25.0,-100.00,North,-999,0.0,0.0,59,-99.99,,,-99.99,,2013-03-18 05:32:00,
2013-03-17 22:42:00,37.0,23.0,-100.00,North,-999,0.0,0.0,56,-99.99,,,-99.99,,2013-03-18 05:42:00,
2013-03-17 22:52:00,37.0,21.0,-100.00,North,-999,0.0,0.0,53,-99.99,,,-99.99,,2013-03-18 05:52:00,
2013-03-17 23:02:00,37.0,21.0,-100.00,North,-999,0.0,0.0,51,-99.99,,,-99.99,,2013-03-18 06:02:00,
2013-03-17 23:12:00,37.0,21.0,-100.00,North,-999,0.0,0.0,52,-99.99,,,-99.99,,2013-03-18 06:12:00,
2013-03-17 23:22:00,37.0,20.0,-100.00,ESE,120,3.0,4.0,49,-99.99,,,-99.99,,2013-03-18 06:22:00,
2013-03-17 23:32:00,37.0,21.0,-100.00,ESE,120,4.0,5.0,52,-99.99,,,-99.99,,2013-03-18 06:32:00,
2013-03-17 23:42:00,37.0,19.0,-100.00,ESE,121,3.0,4.0,48,-99.99,,,-99.99,,2013-03-18 06:42:00,
2013-03-17 23:52:00,37.0,20.0,-100.00,ESE,116,3.0,4.0,49,-99.99,,,-99.99,,2013-03-18 06:52:00,